createdAt,value
2018-05-14T00:01:25.579Z,25.3
2018-05-14T00:11:27.324Z,42.2
2018-05-14T00:21:27.544Z,38.3
2018-05-14T00:31:27.682Z,32.6
2018-05-14T00:41:27.361Z,29.6
2018-05-14T00:51:27.304Z,25.7
2018-05-14T01:01:27.054Z,28.7
2018-05-14T01:11:27.081Z,11.6
2018-05-14T01:21:26.960Z,10.3
2018-05-14T01:31:27.483Z,8.8
2018-05-14T01:41:27.447Z,9.1
2018-05-14T01:51:27.258Z,7.4
2018-05-14T02:01:26.873Z,9.7
2018-05-14T02:11:25.879Z,8.2
2018-05-14T02:21:27.541Z,15.1
2018-05-14T02:31:27.332Z,11.8
2018-05-14T02:41:27.841Z,17.4
2018-05-14T02:51:27.281Z,10.0
2018-05-14T03:01:27.321Z,13.9
2018-05-14T03:11:26.972Z,13.4
2018-05-14T03:21:26.910Z,14.6
2018-05-14T03:31:26.882Z,9.5
2018-05-14T03:41:29.626Z,8.0
2018-05-14T03:51:28.905Z,12.9
2018-05-14T04:01:26.468Z,15.1
2018-05-14T04:11:27.776Z,8.5
2018-05-14T04:21:28.604Z,11.0
2018-05-14T04:31:28.649Z,20.0
2018-05-14T04:41:27.324Z,13.9
2018-05-14T04:51:27.652Z,15.4
2018-05-14T05:01:26.270Z,19.2
2018-05-14T05:11:27.157Z,20.4
2018-05-14T05:21:27.326Z,20.4
2018-05-14T05:31:27.283Z,15.3
2018-05-14T05:41:28.233Z,20.8
2018-05-14T05:51:28.473Z,16.2
2018-05-14T06:01:27.056Z,24.5
2018-05-14T06:11:28.317Z,21.8
2018-05-14T06:21:27.254Z,20.1
2018-05-14T06:31:26.946Z,13.0
2018-05-14T06:41:26.631Z,12.9
2018-05-14T06:51:27.038Z,13.7
2018-05-14T07:01:27.116Z,7.2
2018-05-14T07:11:26.820Z,8.0
2018-05-14T07:21:27.387Z,7.7
2018-05-14T07:31:28.582Z,13.0
2018-05-14T07:41:28.025Z,7.4
2018-05-14T07:51:27.228Z,16.1
2018-05-14T08:01:26.996Z,9.0
2018-05-14T08:11:26.721Z,13.1
2018-05-14T08:21:28.584Z,6.8
2018-05-14T08:31:27.316Z,8.2
2018-05-14T08:41:27.119Z,7.6
2018-05-14T08:51:27.014Z,10.4
2018-05-14T09:01:28.981Z,6.6
2018-05-14T09:11:28.808Z,5.4
2018-05-14T09:21:26.804Z,8.0
2018-05-14T09:31:28.902Z,5.0
2018-05-14T09:41:27.310Z,6.7
2018-05-14T09:51:27.648Z,7.4
2018-05-14T10:01:26.839Z,8.1
2018-05-14T10:11:26.558Z,11.9
2018-05-14T10:21:27.343Z,5.2
2018-05-14T10:31:27.058Z,8.7
2018-05-14T10:41:28.629Z,7.6
2018-05-14T10:51:26.723Z,7.7
2018-05-14T11:01:26.429Z,10.7
2018-05-14T11:11:27.574Z,9.7
2018-05-14T11:21:28.254Z,17.0
2018-05-14T11:31:27.580Z,17.3
2018-05-14T11:41:26.219Z,5.8
2018-05-14T11:51:27.025Z,4.2
2018-05-14T12:01:26.024Z,7.3
2018-05-14T12:11:27.419Z,5.8
2018-05-14T12:21:28.502Z,4.9
2018-05-14T12:31:28.316Z,7.9
2018-05-14T12:41:27.047Z,8.5
2018-05-14T12:51:26.690Z,8.9
2018-05-14T13:01:25.570Z,10.9
2018-05-14T13:11:26.425Z,5.1
2018-05-14T13:21:28.182Z,4.4
2018-05-14T13:31:27.708Z,7.5
2018-05-14T13:41:26.437Z,4.1
2018-05-14T13:51:26.278Z,5.9
2018-05-14T14:01:27.014Z,6.6
2018-05-14T14:11:27.274Z,18.7
2018-05-14T14:21:26.677Z,6.0
2018-05-14T14:31:25.504Z,3.9
2018-05-14T14:41:26.258Z,4.5
2018-05-14T14:51:27.279Z,4.8
2018-05-14T15:01:28.897Z,5.6
2018-05-14T15:11:26.697Z,3.2
2018-05-14T15:21:25.929Z,4.4
2018-05-14T15:31:27.428Z,4.1
2018-05-14T15:41:27.593Z,3.6
2018-05-14T15:51:27.609Z,6.9
2018-05-14T16:01:25.488Z,3.4
2018-05-14T16:11:27.269Z,5.0
2018-05-14T16:21:27.522Z,6.2
2018-05-14T16:31:28.136Z,5.6
2018-05-14T16:41:26.899Z,5.1
2018-05-14T16:51:25.793Z,5.0
2018-05-14T17:01:25.408Z,7.0
2018-05-14T17:11:27.659Z,15.9
2018-05-14T17:21:26.091Z,22.9
2018-05-14T17:31:25.422Z,9.2
2018-05-14T17:41:26.464Z,6.3
2018-05-14T17:51:26.687Z,7.2
2018-05-14T18:01:25.695Z,6.2
2018-05-14T18:11:26.016Z,4.3
2018-05-14T18:21:26.255Z,3.7
2018-05-14T18:31:26.662Z,4.7
2018-05-14T18:41:24.867Z,6.6
2018-05-14T18:51:25.154Z,9.0
2018-05-14T19:01:26.983Z,9.7
2018-05-14T19:11:26.276Z,16.1
2018-05-14T19:21:27.053Z,8.5
2018-05-14T19:31:27.333Z,12.1
2018-05-14T19:41:27.468Z,10.0
2018-05-14T19:51:27.295Z,12.2
2018-05-14T20:01:26.340Z,15.5
2018-05-14T20:11:26.862Z,15.2
2018-05-14T20:21:25.972Z,19.9
2018-05-14T20:31:26.413Z,9.7
2018-05-14T20:41:27.304Z,10.6
2018-05-14T20:51:26.759Z,9.4
2018-05-14T21:01:25.703Z,10.1
2018-05-14T21:11:25.790Z,10.0
2018-05-14T21:21:27.424Z,11.4
2018-05-14T21:31:26.247Z,10.5
2018-05-14T21:41:26.316Z,8.4
2018-05-14T21:51:27.587Z,9.0
2018-05-14T22:01:26.469Z,7.7
2018-05-14T22:11:26.585Z,11.3
2018-05-14T22:21:26.614Z,6.8
2018-05-14T22:31:25.826Z,10.9
2018-05-14T22:41:25.993Z,13.7
2018-05-14T22:51:26.975Z,12.9
2018-05-14T23:01:26.690Z,10.3
2018-05-14T23:11:25.789Z,9.6
2018-05-14T23:21:27.753Z,11.5
2018-05-14T23:31:26.446Z,14.4
2018-05-14T23:41:26.261Z,11.3
2018-05-14T23:51:27.326Z,12.4
